sensor_id;sensor_type;location;lat;lon;timestamp;temperature;humidity
20777;DHT22;10548;47.504;8.248;2022-09-23T00:01:11;8.10;99.90
20777;DHT22;10548;47.504;8.248;2022-09-23T00:03:41;8.20;99.90
20777;DHT22;10548;47.504;8.248;2022-09-23T00:06:11;8.30;99.90
20777;DHT22;10548;47.504;8.248;2022-09-23T00:08:39;8.10;99.90
20777;DHT22;10548;47.504;8.248;2022-09-23T00:11:08;8.10;99.90
20777;DHT22;10548;47.504;8.248;2022-09-23T00:13:36;7.90;99.90
20777;DHT22;10548;47.504;8.248;2022-09-23T00:16:06;7.80;99.90
20777;DHT22;10548;47.504;8.248;2022-09-23T00:18:33;7.90;99.90
20777;DHT22;10548;47.504;8.248;2022-09-23T00:21:09;7.90;99.90
20777;DHT22;10548;47.504;8.248;2022-09-23T00:23:38;7.90;99.90
20777;DHT22;10548;47.504;8.248;2022-09-23T00:26:07;7.90;99.90
20777;DHT22;10548;47.504;8.248;2022-09-23T00:28:35;7.90;99.90
20777;DHT22;10548;47.504;8.248;2022-09-23T00:31:08;8.00;99.90
20777;DHT22;10548;47.504;8.248;2022-09-23T00:33:35;7.90;99.90
20777;DHT22;10548;47.504;8.248;2022-09-23T00:36:04;7.90;99.90
20777;DHT22;10548;47.504;8.248;2022-09-23T00:38:32;7.90;99.90
20777;DHT22;10548;47.504;8.248;2022-09-23T00:41:00;8.00;99.90
20777;DHT22;10548;47.504;8.248;2022-09-23T00:43:47;7.90;99.90
20777;DHT22;10548;47.504;8.248;2022-09-23T00:46:19;7.80;99.90
20777;DHT22;10548;47.504;8.248;2022-09-23T00:48:51;7.60;99.90
20777;DHT22;10548;47.504;8.248;2022-09-23T00:51:24;7.60;99.90
20777;DHT22;10548;47.504;8.248;2022-09-23T00:53:51;7.60;99.90
20777;DHT22;10548;47.504;8.248;2022-09-23T00:56:21;7.60;99.90
20777;DHT22;10548;47.504;8.248;2022-09-23T00:58:49;7.70;99.90
20777;DHT22;10548;47.504;8.248;2022-09-23T01:01:18;7.70;99.90
20777;DHT22;10548;47.504;8.248;2022-09-23T01:03:45;7.60;99.90
20777;DHT22;10548;47.504;8.248;2022-09-23T01:06:13;7.50;99.90
20777;DHT22;10548;47.504;8.248;2022-09-23T01:08:43;7.50;99.90
20777;DHT22;10548;47.504;8.248;2022-09-23T01:14:39;7.40;99.90
20777;DHT22;10548;47.504;8.248;2022-09-23T01:20:47;7.40;99.90
20777;DHT22;10548;47.504;8.248;2022-09-23T01:30:11;7.40;99.90
20777;DHT22;10548;47.504;8.248;2022-09-23T01:32:53;7.30;99.90
20777;DHT22;10548;47.504;8.248;2022-09-23T01:38:56;7.30;99.90
20777;DHT22;10548;47.504;8.248;2022-09-23T01:42:03;7.10;99.90
20777;DHT22;10548;47.504;8.248;2022-09-23T01:45:00;7.10;99.90
20777;DHT22;10548;47.504;8.248;2022-09-23T01:47:37;7.10;99.90
20777;DHT22;10548;47.504;8.248;2022-09-23T01:50:10;7.10;99.90
20777;DHT22;10548;47.504;8.248;2022-09-23T01:53:04;7.00;99.90
20777;DHT22;10548;47.504;8.248;2022-09-23T01:55:36;7.10;99.90
20777;DHT22;10548;47.504;8.248;2022-09-23T01:58:19;7.20;99.90
20777;DHT22;10548;47.504;8.248;2022-09-23T02:00:53;7.10;99.90
20777;DHT22;10548;47.504;8.248;2022-09-23T02:03:31;7.00;99.90
20777;DHT22;10548;47.504;8.248;2022-09-23T02:06:16;7.00;99.90
20777;DHT22;10548;47.504;8.248;2022-09-23T02:09:07;7.10;99.90
20777;DHT22;10548;47.504;8.248;2022-09-23T02:11:38;7.00;99.90
20777;DHT22;10548;47.504;8.248;2022-09-23T02:14:22;6.90;99.90
20777;DHT22;10548;47.504;8.248;2022-09-23T02:16:51;7.00;99.90
20777;DHT22;10548;47.504;8.248;2022-09-23T02:19:36;7.10;99.90
20777;DHT22;10548;47.504;8.248;2022-09-23T02:22:14;7.00;99.90
20777;DHT22;10548;47.504;8.248;2022-09-23T02:24:41;6.90;99.90
20777;DHT22;10548;47.504;8.248;2022-09-23T02:27:41;6.90;99.90
20777;DHT22;10548;47.504;8.248;2022-09-23T02:30:17;6.90;99.90
20777;DHT22;10548;47.504;8.248;2022-09-23T02:33:55;6.90;99.90
20777;DHT22;10548;47.504;8.248;2022-09-23T02:36:14;6.90;99.90
20777;DHT22;10548;47.504;8.248;2022-09-23T02:38:49;6.90;99.90
20777;DHT22;10548;47.504;8.248;2022-09-23T02:41:25;6.90;99.90
20777;DHT22;10548;47.504;8.248;2022-09-23T02:44:06;6.90;99.90
20777;DHT22;10548;47.504;8.248;2022-09-23T02:46:35;6.80;99.90
20777;DHT22;10548;47.504;8.248;2022-09-23T02:49:32;6.80;99.90
20777;DHT22;10548;47.504;8.248;2022-09-23T02:52:02;6.70;99.90
20777;DHT22;10548;47.504;8.248;2022-09-23T02:54:33;6.80;99.90
20777;DHT22;10548;47.504;8.248;2022-09-23T02:57:04;6.70;99.90
20777;DHT22;10548;47.504;8.248;2022-09-23T02:59:33;6.70;99.90
20777;DHT22;10548;47.504;8.248;2022-09-23T03:02:45;6.60;99.90
20777;DHT22;10548;47.504;8.248;2022-09-23T03:05:44;6.70;99.90
20777;DHT22;10548;47.504;8.248;2022-09-23T03:08:47;6.60;99.90
20777;DHT22;10548;47.504;8.248;2022-09-23T03:11:17;6.50;99.90
20777;DHT22;10548;47.504;8.248;2022-09-23T03:14:04;6.60;99.90
20777;DHT22;10548;47.504;8.248;2022-09-23T03:16:42;6.50;99.90
20777;DHT22;10548;47.504;8.248;2022-09-23T03:19:31;6.40;99.90
20777;DHT22;10548;47.504;8.248;2022-09-23T03:22:37;6.40;99.90
20777;DHT22;10548;47.504;8.248;2022-09-23T03:25:09;6.50;99.90
20777;DHT22;10548;47.504;8.248;2022-09-23T03:27:38;6.60;99.90
20777;DHT22;10548;47.504;8.248;2022-09-23T03:30:09;6.50;99.90
20777;DHT22;10548;47.504;8.248;2022-09-23T03:32:37;6.30;99.90
20777;DHT22;10548;47.504;8.248;2022-09-23T03:35:05;6.20;99.90
20777;DHT22;10548;47.504;8.248;2022-09-23T03:40:33;6.10;99.90
20777;DHT22;10548;47.504;8.248;2022-09-23T03:43:01;6.20;99.90
20777;DHT22;10548;47.504;8.248;2022-09-23T03:45:31;6.30;99.90
20777;DHT22;10548;47.504;8.248;2022-09-23T03:48:00;6.30;99.90
20777;DHT22;10548;47.504;8.248;2022-09-23T03:50:27;6.30;99.90
20777;DHT22;10548;47.504;8.248;2022-09-23T03:52:54;6.30;99.90
20777;DHT22;10548;47.504;8.248;2022-09-23T03:55:21;6.30;99.90
20777;DHT22;10548;47.504;8.248;2022-09-23T03:57:48;6.30;99.90
20777;DHT22;10548;47.504;8.248;2022-09-23T04:00:15;6.30;99.90
20777;DHT22;10548;47.504;8.248;2022-09-23T04:02:43;6.30;99.90
20777;DHT22;10548;47.504;8.248;2022-09-23T04:05:11;6.20;99.90
20777;DHT22;10548;47.504;8.248;2022-09-23T04:07:39;6.20;99.90
20777;DHT22;10548;47.504;8.248;2022-09-23T04:10:07;6.20;99.90
20777;DHT22;10548;47.504;8.248;2022-09-23T04:12:36;6.10;99.90
20777;DHT22;10548;47.504;8.248;2022-09-23T04:15:03;6.10;99.90
20777;DHT22;10548;47.504;8.248;2022-09-23T04:17:30;6.20;99.90
20777;DHT22;10548;47.504;8.248;2022-09-23T04:19:57;6.20;99.90
20777;DHT22;10548;47.504;8.248;2022-09-23T04:22:24;6.20;99.90
20777;DHT22;10548;47.504;8.248;2022-09-23T04:24:51;6.10;99.90
20777;DHT22;10548;47.504;8.248;2022-09-23T04:27:19;6.10;99.90
20777;DHT22;10548;47.504;8.248;2022-09-23T04:29:46;6.10;99.90
20777;DHT22;10548;47.504;8.248;2022-09-23T04:32:13;6.00;99.90
20777;DHT22;10548;47.504;8.248;2022-09-23T04:34:40;6.00;99.90
20777;DHT22;10548;47.504;8.248;2022-09-23T04:37:07;5.90;99.90
20777;DHT22;10548;47.504;8.248;2022-09-23T04:39:34;5.90;99.90
20777;DHT22;10548;47.504;8.248;2022-09-23T04:42:01;6.00;99.90
20777;DHT22;10548;47.504;8.248;2022-09-23T04:44:29;6.10;99.90
20777;DHT22;10548;47.504;8.248;2022-09-23T04:46:56;6.10;99.90
20777;DHT22;10548;47.504;8.248;2022-09-23T04:49:24;6.00;99.90
20777;DHT22;10548;47.504;8.248;2022-09-23T04:51:52;6.00;99.90
20777;DHT22;10548;47.504;8.248;2022-09-23T04:54:20;6.10;99.90
20777;DHT22;10548;47.504;8.248;2022-09-23T04:56:47;6.10;99.90
20777;DHT22;10548;47.504;8.248;2022-09-23T04:59:14;6.00;99.90
20777;DHT22;10548;47.504;8.248;2022-09-23T05:01:41;6.00;99.90
20777;DHT22;10548;47.504;8.248;2022-09-23T05:04:10;5.90;99.90
20777;DHT22;10548;47.504;8.248;2022-09-23T05:06:40;5.90;99.90
20777;DHT22;10548;47.504;8.248;2022-09-23T05:09:13;5.90;99.90
20777;DHT22;10548;47.504;8.248;2022-09-23T05:11:41;5.80;99.90
20777;DHT22;10548;47.504;8.248;2022-09-23T05:14:08;5.90;99.90
20777;DHT22;10548;47.504;8.248;2022-09-23T05:16:36;5.90;99.90
20777;DHT22;10548;47.504;8.248;2022-09-23T05:19:03;6.00;99.90
20777;DHT22;10548;47.504;8.248;2022-09-23T05:21:31;6.10;99.90
20777;DHT22;10548;47.504;8.248;2022-09-23T05:23:58;6.00;99.90
20777;DHT22;10548;47.504;8.248;2022-09-23T05:26:31;6.00;99.90
20777;DHT22;10548;47.504;8.248;2022-09-23T05:28:58;6.00;99.90
20777;DHT22;10548;47.504;8.248;2022-09-23T05:31:28;6.00;99.90
20777;DHT22;10548;47.504;8.248;2022-09-23T05:33:57;6.00;99.90
20777;DHT22;10548;47.504;8.248;2022-09-23T05:36:26;6.10;99.90
20777;DHT22;10548;47.504;8.248;2022-09-23T05:38:54;6.20;99.90
20777;DHT22;10548;47.504;8.248;2022-09-23T05:41:24;6.20;99.90
20777;DHT22;10548;47.504;8.248;2022-09-23T05:43:52;6.30;99.90
20777;DHT22;10548;47.504;8.248;2022-09-23T05:46:28;6.30;99.90
20777;DHT22;10548;47.504;8.248;2022-09-23T05:48:57;6.50;99.90
20777;DHT22;10548;47.504;8.248;2022-09-23T05:51:29;6.70;99.90
20777;DHT22;10548;47.504;8.248;2022-09-23T05:53:58;6.80;99.90
20777;DHT22;10548;47.504;8.248;2022-09-23T05:56:26;6.90;99.90
20777;DHT22;10548;47.504;8.248;2022-09-23T05:58:56;7.00;99.90
20777;DHT22;10548;47.504;8.248;2022-09-23T06:01:28;7.20;99.90
20777;DHT22;10548;47.504;8.248;2022-09-23T06:04:00;7.30;99.90
20777;DHT22;10548;47.504;8.248;2022-09-23T06:06:33;7.40;99.90
20777;DHT22;10548;47.504;8.248;2022-09-23T06:09:01;7.50;99.90
20777;DHT22;10548;47.504;8.248;2022-09-23T06:11:33;7.80;99.90
20777;DHT22;10548;47.504;8.248;2022-09-23T06:14:00;7.80;99.90
20777;DHT22;10548;47.504;8.248;2022-09-23T06:16:33;7.70;99.90
20777;DHT22;10548;47.504;8.248;2022-09-23T06:19:00;7.60;99.90
20777;DHT22;10548;47.504;8.248;2022-09-23T06:21:34;7.60;99.90
20777;DHT22;10548;47.504;8.248;2022-09-23T06:24:02;7.80;99.90
20777;DHT22;10548;47.504;8.248;2022-09-23T06:26:29;7.90;99.90
20777;DHT22;10548;47.504;8.248;2022-09-23T06:29:00;8.10;99.90
20777;DHT22;10548;47.504;8.248;2022-09-23T06:31:28;8.10;99.90
20777;DHT22;10548;47.504;8.248;2022-09-23T06:33:56;8.10;99.90
20777;DHT22;10548;47.504;8.248;2022-09-23T06:36:36;8.00;99.90
20777;DHT22;10548;47.504;8.248;2022-09-23T06:39:10;8.10;99.90
20777;DHT22;10548;47.504;8.248;2022-09-23T06:41:37;8.30;99.90
20777;DHT22;10548;47.504;8.248;2022-09-23T06:44:10;8.00;99.90
20777;DHT22;10548;47.504;8.248;2022-09-23T06:46:37;8.20;99.90
20777;DHT22;10548;47.504;8.248;2022-09-23T06:49:05;8.30;99.90
20777;DHT22;10548;47.504;8.248;2022-09-23T06:51:32;8.60;99.90
20777;DHT22;10548;47.504;8.248;2022-09-23T06:53:59;8.80;99.90
20777;DHT22;10548;47.504;8.248;2022-09-23T06:56:26;8.90;99.90
20777;DHT22;10548;47.504;8.248;2022-09-23T06:58:53;9.00;99.90
20777;DHT22;10548;47.504;8.248;2022-09-23T07:01:20;9.00;99.90
20777;DHT22;10548;47.504;8.248;2022-09-23T07:03:58;9.00;99.90
20777;DHT22;10548;47.504;8.248;2022-09-23T07:06:26;9.20;99.90
20777;DHT22;10548;47.504;8.248;2022-09-23T07:08:53;9.30;99.90
20777;DHT22;10548;47.504;8.248;2022-09-23T07:11:20;9.40;99.90
20777;DHT22;10548;47.504;8.248;2022-09-23T07:13:49;9.40;99.90
20777;DHT22;10548;47.504;8.248;2022-09-23T07:16:16;9.40;99.90
20777;DHT22;10548;47.504;8.248;2022-09-23T07:18:43;9.40;99.90
20777;DHT22;10548;47.504;8.248;2022-09-23T07:21:18;9.30;99.90
20777;DHT22;10548;47.504;8.248;2022-09-23T07:23:49;9.60;99.90
20777;DHT22;10548;47.504;8.248;2022-09-23T07:26:18;9.90;99.90
20777;DHT22;10548;47.504;8.248;2022-09-23T07:28:46;9.80;99.90
20777;DHT22;10548;47.504;8.248;2022-09-23T07:31:15;9.80;99.90
20777;DHT22;10548;47.504;8.248;2022-09-23T07:33:56;9.90;99.90
20777;DHT22;10548;47.504;8.248;2022-09-23T07:36:24;9.80;99.90
20777;DHT22;10548;47.504;8.248;2022-09-23T07:38:54;9.90;99.90
20777;DHT22;10548;47.504;8.248;2022-09-23T07:41:30;9.90;99.90
20777;DHT22;10548;47.504;8.248;2022-09-23T07:43:58;10.20;99.90
20777;DHT22;10548;47.504;8.248;2022-09-23T07:46:31;10.40;99.90
20777;DHT22;10548;47.504;8.248;2022-09-23T07:48:59;10.50;99.90
20777;DHT22;10548;47.504;8.248;2022-09-23T07:51:30;10.60;99.90
20777;DHT22;10548;47.504;8.248;2022-09-23T07:54:06;10.90;99.90
20777;DHT22;10548;47.504;8.248;2022-09-23T07:56:36;11.20;99.90
20777;DHT22;10548;47.504;8.248;2022-09-23T07:59:05;11.30;99.90
20777;DHT22;10548;47.504;8.248;2022-09-23T08:01:37;11.50;99.90
20777;DHT22;10548;47.504;8.248;2022-09-23T08:06:57;12.00;99.90
20777;DHT22;10548;47.504;8.248;2022-09-23T08:09:27;12.00;99.90
20777;DHT22;10548;47.504;8.248;2022-09-23T08:11:55;11.50;99.90
20777;DHT22;10548;47.504;8.248;2022-09-23T08:14:22;11.80;99.90
20777;DHT22;10548;47.504;8.248;2022-09-23T08:16:49;11.90;99.90
20777;DHT22;10548;47.504;8.248;2022-09-23T08:19:17;12.00;99.90
20777;DHT22;10548;47.504;8.248;2022-09-23T08:21:45;12.30;99.90
20777;DHT22;10548;47.504;8.248;2022-09-23T08:24:17;12.50;99.90
20777;DHT22;10548;47.504;8.248;2022-09-23T08:26:46;13.00;99.90
20777;DHT22;10548;47.504;8.248;2022-09-23T08:29:15;12.90;99.90
20777;DHT22;10548;47.504;8.248;2022-09-23T08:31:42;12.70;99.90
20777;DHT22;10548;47.504;8.248;2022-09-23T08:34:10;13.00;99.90
20777;DHT22;10548;47.504;8.248;2022-09-23T08:36:37;12.80;99.90
20777;DHT22;10548;47.504;8.248;2022-09-23T08:39:05;12.50;99.90
20777;DHT22;10548;47.504;8.248;2022-09-23T08:42:06;12.60;99.90
20777;DHT22;10548;47.504;8.248;2022-09-23T08:45:04;13.00;99.90
20777;DHT22;10548;47.504;8.248;2022-09-23T08:48:01;13.10;99.90
20777;DHT22;10548;47.504;8.248;2022-09-23T08:50:47;13.30;99.90
20777;DHT22;10548;47.504;8.248;2022-09-23T08:53:32;13.40;99.90
20777;DHT22;10548;47.504;8.248;2022-09-23T08:56:05;13.70;99.90
20777;DHT22;10548;47.504;8.248;2022-09-23T08:58:53;13.60;99.90
20777;DHT22;10548;47.504;8.248;2022-09-23T09:01:45;13.90;99.90
20777;DHT22;10548;47.504;8.248;2022-09-23T09:10:20;14.00;99.90
20777;DHT22;10548;47.504;8.248;2022-09-23T09:13:06;15.00;96.70
20777;DHT22;10548;47.504;8.248;2022-09-23T09:19:56;14.80;97.40
20777;DHT22;10548;47.504;8.248;2022-09-23T09:22:59;15.50;94.50
20777;DHT22;10548;47.504;8.248;2022-09-23T09:26:08;16.60;91.80
20777;DHT22;10548;47.504;8.248;2022-09-23T09:28:51;15.80;90.40
20777;DHT22;10548;47.504;8.248;2022-09-23T09:44:55;15.50;93.60
20777;DHT22;10548;47.504;8.248;2022-09-23T09:47:44;16.40;90.00
20777;DHT22;10548;47.504;8.248;2022-09-23T09:50:38;17.00;85.30
20777;DHT22;10548;47.504;8.248;2022-09-23T10:01:08;16.60;86.10
20777;DHT22;10548;47.504;8.248;2022-09-23T10:03:42;17.50;81.30
20777;DHT22;10548;47.504;8.248;2022-09-23T10:06:23;17.60;81.20
20777;DHT22;10548;47.504;8.248;2022-09-23T10:09:21;17.30;78.30
20777;DHT22;10548;47.504;8.248;2022-09-23T10:12:12;16.80;80.50
20777;DHT22;10548;47.504;8.248;2022-09-23T10:14:46;16.80;80.40
20777;DHT22;10548;47.504;8.248;2022-09-23T10:17:32;17.70;79.00
20777;DHT22;10548;47.504;8.248;2022-09-23T10:20:05;17.90;75.20
20777;DHT22;10548;47.504;8.248;2022-09-23T10:22:36;18.00;77.70
20777;DHT22;10548;47.504;8.248;2022-09-23T10:25:14;18.60;71.00
20777;DHT22;10548;47.504;8.248;2022-09-23T10:27:42;17.80;71.70
20777;DHT22;10548;47.504;8.248;2022-09-23T10:40:39;18.30;70.50
20777;DHT22;10548;47.504;8.248;2022-09-23T10:44:00;17.90;70.20
20777;DHT22;10548;47.504;8.248;2022-09-23T10:47:35;17.70;70.90
20777;DHT22;10548;47.504;8.248;2022-09-23T10:50:17;18.20;69.40
20777;DHT22;10548;47.504;8.248;2022-09-23T10:53:03;18.40;65.50
20777;DHT22;10548;47.504;8.248;2022-09-23T11:43:21;19.50;63.30
20777;DHT22;10548;47.504;8.248;2022-09-23T11:49:16;23.30;43.80
20777;DHT22;10548;47.504;8.248;2022-09-23T11:52:14;23.50;43.20
20777;DHT22;10548;47.504;8.248;2022-09-23T11:55:24;24.30;40.20
20777;DHT22;10548;47.504;8.248;2022-09-23T11:58:21;22.70;42.90
20777;DHT22;10548;47.504;8.248;2022-09-23T12:01:01;23.30;43.50
20777;DHT22;10548;47.504;8.248;2022-09-23T12:07:11;23.90;40.50
20777;DHT22;10548;47.504;8.248;2022-09-23T12:10:02;24.40;38.30
20777;DHT22;10548;47.504;8.248;2022-09-23T12:12:42;24.00;38.50
20777;DHT22;10548;47.504;8.248;2022-09-23T12:19:02;22.70;41.30
20777;DHT22;10548;47.504;8.248;2022-09-23T12:27:48;25.00;38.20
20777;DHT22;10548;47.504;8.248;2022-09-23T12:30:20;23.00;41.20
20777;DHT22;10548;47.504;8.248;2022-09-23T12:33:23;24.50;38.70
20777;DHT22;10548;47.504;8.248;2022-09-23T12:35:54;24.40;37.90
20777;DHT22;10548;47.504;8.248;2022-09-23T12:38:25;25.60;34.90
20777;DHT22;10548;47.504;8.248;2022-09-23T12:40:54;23.40;40.00
20777;DHT22;10548;47.504;8.248;2022-09-23T12:43:32;24.60;39.00
20777;DHT22;10548;47.504;8.248;2022-09-23T12:46:25;23.50;38.80
20777;DHT22;10548;47.504;8.248;2022-09-23T12:48:59;25.60;36.10
20777;DHT22;10548;47.504;8.248;2022-09-23T12:54:21;25.20;34.60
20777;DHT22;10548;47.504;8.248;2022-09-23T12:56:58;25.20;36.00
20777;DHT22;10548;47.504;8.248;2022-09-23T12:59:28;23.60;40.70
20777;DHT22;10548;47.504;8.248;2022-09-23T13:01:57;24.10;39.20
20777;DHT22;10548;47.504;8.248;2022-09-23T13:38:30;25.40;37.30
20777;DHT22;10548;47.504;8.248;2022-09-23T13:41:14;29.80;27.80
20777;DHT22;10548;47.504;8.248;2022-09-23T13:43:54;27.90;30.90
20777;DHT22;10548;47.504;8.248;2022-09-23T13:46:30;27.80;30.20
20777;DHT22;10548;47.504;8.248;2022-09-23T13:48:58;28.30;29.40
20777;DHT22;10548;47.504;8.248;2022-09-23T13:51:34;27.70;29.80
20777;DHT22;10548;47.504;8.248;2022-09-23T13:54:03;24.80;35.40
20777;DHT22;10548;47.504;8.248;2022-09-23T13:56:32;25.70;34.40
20777;DHT22;10548;47.504;8.248;2022-09-23T13:59:44;26.80;31.80
20777;DHT22;10548;47.504;8.248;2022-09-23T14:02:13;28.10;29.00
20777;DHT22;10548;47.504;8.248;2022-09-23T14:04:43;26.50;30.40
20777;DHT22;10548;47.504;8.248;2022-09-23T14:07:13;26.40;31.70
20777;DHT22;10548;47.504;8.248;2022-09-23T14:09:43;27.50;31.10
20777;DHT22;10548;47.504;8.248;2022-09-23T14:12:10;26.70;32.30
20777;DHT22;10548;47.504;8.248;2022-09-23T14:14:40;25.50;35.40
20777;DHT22;10548;47.504;8.248;2022-09-23T14:17:12;25.10;36.10
20777;DHT22;10548;47.504;8.248;2022-09-23T14:19:41;25.00;37.20
20777;DHT22;10548;47.504;8.248;2022-09-23T14:22:28;26.30;34.60
20777;DHT22;10548;47.504;8.248;2022-09-23T14:24:56;27.70;32.00
20777;DHT22;10548;47.504;8.248;2022-09-23T14:27:27;26.90;30.80
20777;DHT22;10548;47.504;8.248;2022-09-23T14:29:56;26.60;32.30
20777;DHT22;10548;47.504;8.248;2022-09-23T14:32:25;27.00;31.10
20777;DHT22;10548;47.504;8.248;2022-09-23T14:35:21;26.00;32.70
20777;DHT22;10548;47.504;8.248;2022-09-23T14:37:56;25.30;34.40
20777;DHT22;10548;47.504;8.248;2022-09-23T14:41:00;24.80;37.50
20777;DHT22;10548;47.504;8.248;2022-09-23T14:43:57;24.50;38.10
20777;DHT22;10548;47.504;8.248;2022-09-23T14:46:27;25.20;37.60
20777;DHT22;10548;47.504;8.248;2022-09-23T14:49:15;25.10;37.50
20777;DHT22;10548;47.504;8.248;2022-09-23T14:51:59;25.90;36.90
20777;DHT22;10548;47.504;8.248;2022-09-23T14:54:42;26.30;36.50
20777;DHT22;10548;47.504;8.248;2022-09-23T14:57:29;26.60;35.40
20777;DHT22;10548;47.504;8.248;2022-09-23T15:00:17;26.60;35.70
20777;DHT22;10548;47.504;8.248;2022-09-23T15:03:00;26.00;36.60
20777;DHT22;10548;47.504;8.248;2022-09-23T15:05:40;25.10;37.80
20777;DHT22;10548;47.504;8.248;2022-09-23T15:08:16;24.90;39.30
20777;DHT22;10548;47.504;8.248;2022-09-23T15:10:44;24.30;39.80
20777;DHT22;10548;47.504;8.248;2022-09-23T15:13:17;23.20;43.80
20777;DHT22;10548;47.504;8.248;2022-09-23T15:15:45;23.50;43.10
20777;DHT22;10548;47.504;8.248;2022-09-23T15:18:30;23.50;44.00
20777;DHT22;10548;47.504;8.248;2022-09-23T15:21:01;23.20;44.30
20777;DHT22;10548;47.504;8.248;2022-09-23T15:23:47;22.70;45.50
20777;DHT22;10548;47.504;8.248;2022-09-23T15:29:08;22.50;52.10
20777;DHT22;10548;47.504;8.248;2022-09-23T15:31:36;22.20;46.80
20777;DHT22;10548;47.504;8.248;2022-09-23T15:34:03;22.00;49.50
20777;DHT22;10548;47.504;8.248;2022-09-23T15:36:31;21.90;53.90
20777;DHT22;10548;47.504;8.248;2022-09-23T15:39:03;21.70;53.30
20777;DHT22;10548;47.504;8.248;2022-09-23T15:41:31;22.00;51.10
20777;DHT22;10548;47.504;8.248;2022-09-23T15:44:13;21.80;50.60
20777;DHT22;10548;47.504;8.248;2022-09-23T15:46:48;22.10;52.20
20777;DHT22;10548;47.504;8.248;2022-09-23T15:49:32;22.50;51.80
20777;DHT22;10548;47.504;8.248;2022-09-23T15:52:02;22.20;54.30
20777;DHT22;10548;47.504;8.248;2022-09-23T15:54:30;21.80;51.80
20777;DHT22;10548;47.504;8.248;2022-09-23T15:56:58;21.80;53.20
20777;DHT22;10548;47.504;8.248;2022-09-23T15:59:27;21.90;51.70
20777;DHT22;10548;47.504;8.248;2022-09-23T16:01:59;21.80;52.60
20777;DHT22;10548;47.504;8.248;2022-09-23T16:04:29;21.90;53.80
20777;DHT22;10548;47.504;8.248;2022-09-23T16:06:57;21.80;55.90
20777;DHT22;10548;47.504;8.248;2022-09-23T16:09:24;21.50;58.10
20777;DHT22;10548;47.504;8.248;2022-09-23T16:11:56;21.20;59.70
20777;DHT22;10548;47.504;8.248;2022-09-23T16:14:23;21.10;59.20
20777;DHT22;10548;47.504;8.248;2022-09-23T16:16:50;20.90;59.80
20777;DHT22;10548;47.504;8.248;2022-09-23T16:19:17;20.60;62.60
20777;DHT22;10548;47.504;8.248;2022-09-23T16:21:45;20.30;66.20
20777;DHT22;10548;47.504;8.248;2022-09-23T16:24:16;20.20;66.40
20777;DHT22;10548;47.504;8.248;2022-09-23T16:26:44;20.00;67.70
20777;DHT22;10548;47.504;8.248;2022-09-23T16:29:12;19.70;68.80
20777;DHT22;10548;47.504;8.248;2022-09-23T16:31:40;19.50;70.60
20777;DHT22;10548;47.504;8.248;2022-09-23T16:34:07;19.30;71.40
20777;DHT22;10548;47.504;8.248;2022-09-23T16:36:39;19.10;72.80
20777;DHT22;10548;47.504;8.248;2022-09-23T16:39:10;18.90;75.10
20777;DHT22;10548;47.504;8.248;2022-09-23T16:41:38;18.80;77.00
20777;DHT22;10548;47.504;8.248;2022-09-23T16:44:06;18.60;77.80
20777;DHT22;10548;47.504;8.248;2022-09-23T16:46:35;18.60;78.20
20777;DHT22;10548;47.504;8.248;2022-09-23T16:49:02;18.60;78.90
20777;DHT22;10548;47.504;8.248;2022-09-23T16:51:32;18.60;77.60
20777;DHT22;10548;47.504;8.248;2022-09-23T16:54:07;18.60;79.80
20777;DHT22;10548;47.504;8.248;2022-09-23T16:56:41;18.50;78.30
20777;DHT22;10548;47.504;8.248;2022-09-23T16:59:13;18.50;77.30
20777;DHT22;10548;47.504;8.248;2022-09-23T17:01:41;18.30;78.40
20777;DHT22;10548;47.504;8.248;2022-09-23T17:04:27;18.10;79.40
20777;DHT22;10548;47.504;8.248;2022-09-23T17:06:55;18.00;82.70
20777;DHT22;10548;47.504;8.248;2022-09-23T17:09:25;17.80;83.50
20777;DHT22;10548;47.504;8.248;2022-09-23T17:12:16;17.80;84.40
20777;DHT22;10548;47.504;8.248;2022-09-23T17:14:45;17.60;87.00
20777;DHT22;10548;47.504;8.248;2022-09-23T17:17:13;17.60;86.60
20777;DHT22;10548;47.504;8.248;2022-09-23T17:19:40;17.50;88.80
20777;DHT22;10548;47.504;8.248;2022-09-23T17:22:07;17.30;89.40
20777;DHT22;10548;47.504;8.248;2022-09-23T17:24:35;17.20;89.90
20777;DHT22;10548;47.504;8.248;2022-09-23T17:27:02;17.10;91.50
20777;DHT22;10548;47.504;8.248;2022-09-23T17:29:29;16.90;92.30
20777;DHT22;10548;47.504;8.248;2022-09-23T17:31:57;17.00;92.30
20777;DHT22;10548;47.504;8.248;2022-09-23T17:34:24;16.90;92.40
20777;DHT22;10548;47.504;8.248;2022-09-23T17:36:51;16.80;92.40
20777;DHT22;10548;47.504;8.248;2022-09-23T17:39:18;16.60;92.80
20777;DHT22;10548;47.504;8.248;2022-09-23T17:41:45;16.50;93.50
20777;DHT22;10548;47.504;8.248;2022-09-23T17:44:12;16.60;93.60
20777;DHT22;10548;47.504;8.248;2022-09-23T17:46:41;16.60;93.60
20777;DHT22;10548;47.504;8.248;2022-09-23T17:49:09;16.70;92.90
20777;DHT22;10548;47.504;8.248;2022-09-23T17:51:37;16.70;92.90
20777;DHT22;10548;47.504;8.248;2022-09-23T17:54:04;16.60;93.40
20777;DHT22;10548;47.504;8.248;2022-09-23T17:56:32;16.50;95.00
20777;DHT22;10548;47.504;8.248;2022-09-23T17:59:00;16.40;95.60
20777;DHT22;10548;47.504;8.248;2022-09-23T18:01:28;16.40;95.70
20777;DHT22;10548;47.504;8.248;2022-09-23T18:03:57;16.50;95.50
20777;DHT22;10548;47.504;8.248;2022-09-23T18:06:27;16.50;96.50
20777;DHT22;10548;47.504;8.248;2022-09-23T18:08:54;16.40;96.40
20777;DHT22;10548;47.504;8.248;2022-09-23T18:11:26;16.20;97.90
20777;DHT22;10548;47.504;8.248;2022-09-23T18:13:59;16.20;99.00
20777;DHT22;10548;47.504;8.248;2022-09-23T18:16:29;16.30;98.90
20777;DHT22;10548;47.504;8.248;2022-09-23T18:18:59;16.30;99.10
20777;DHT22;10548;47.504;8.248;2022-09-23T18:21:31;16.30;99.10
20777;DHT22;10548;47.504;8.248;2022-09-23T18:23:59;16.20;99.50
20777;DHT22;10548;47.504;8.248;2022-09-23T18:26:46;16.30;99.00
20777;DHT22;10548;47.504;8.248;2022-09-23T18:29:15;16.40;98.30
20777;DHT22;10548;47.504;8.248;2022-09-23T18:31:42;16.40;99.80
20777;DHT22;10548;47.504;8.248;2022-09-23T18:34:12;16.30;99.90
20777;DHT22;10548;47.504;8.248;2022-09-23T18:36:41;16.30;99.90
20777;DHT22;10548;47.504;8.248;2022-09-23T18:39:09;16.20;99.90
20777;DHT22;10548;47.504;8.248;2022-09-23T18:41:36;16.10;99.90
20777;DHT22;10548;47.504;8.248;2022-09-23T18:44:03;16.10;99.90
20777;DHT22;10548;47.504;8.248;2022-09-23T18:46:31;16.00;99.90
20777;DHT22;10548;47.504;8.248;2022-09-23T18:48:58;16.10;99.90
20777;DHT22;10548;47.504;8.248;2022-09-23T18:51:51;16.00;99.90
20777;DHT22;10548;47.504;8.248;2022-09-23T18:54:21;15.90;99.90
20777;DHT22;10548;47.504;8.248;2022-09-23T18:56:49;15.80;99.90
20777;DHT22;10548;47.504;8.248;2022-09-23T18:59:20;15.80;99.90
20777;DHT22;10548;47.504;8.248;2022-09-23T19:01:49;15.80;99.90
20777;DHT22;10548;47.504;8.248;2022-09-23T19:04:19;15.80;99.90
20777;DHT22;10548;47.504;8.248;2022-09-23T19:06:46;15.80;99.90
20777;DHT22;10548;47.504;8.248;2022-09-23T19:09:14;15.70;99.90